sensor_id;sensor_type;location;lat;lon;timestamp;temperature;humidity
17599;DHT22;8918;52.092;5.232;2023-07-13T00:01:16;17.70;99.90
17599;DHT22;8918;52.092;5.232;2023-07-13T00:03:42;17.70;99.90
17599;DHT22;8918;52.092;5.232;2023-07-13T00:06:08;17.70;99.90
17599;DHT22;8918;52.092;5.232;2023-07-13T00:08:34;17.70;99.90
17599;DHT22;8918;52.092;5.232;2023-07-13T00:11:02;17.70;99.90
17599;DHT22;8918;52.092;5.232;2023-07-13T00:13:29;17.70;99.90
17599;DHT22;8918;52.092;5.232;2023-07-13T00:15:56;17.60;99.90
17599;DHT22;8918;52.092;5.232;2023-07-13T00:18:22;17.60;99.90
17599;DHT22;8918;52.092;5.232;2023-07-13T00:20:48;17.60;99.90
17599;DHT22;8918;52.092;5.232;2023-07-13T00:23:14;17.60;99.90
17599;DHT22;8918;52.092;5.232;2023-07-13T00:25:40;17.60;99.90
17599;DHT22;8918;52.092;5.232;2023-07-13T00:28:06;17.50;99.90
17599;DHT22;8918;52.092;5.232;2023-07-13T00:30:32;17.50;99.90
17599;DHT22;8918;52.092;5.232;2023-07-13T00:32:57;17.40;99.90
17599;DHT22;8918;52.092;5.232;2023-07-13T00:35:23;17.50;99.90
17599;DHT22;8918;52.092;5.232;2023-07-13T00:37:49;17.40;99.90
17599;DHT22;8918;52.092;5.232;2023-07-13T00:40:16;17.30;99.90
17599;DHT22;8918;52.092;5.232;2023-07-13T00:42:42;17.30;99.90
17599;DHT22;8918;52.092;5.232;2023-07-13T00:47:36;17.40;99.90
17599;DHT22;8918;52.092;5.232;2023-07-13T00:50:03;17.30;99.90
17599;DHT22;8918;52.092;5.232;2023-07-13T00:52:30;17.30;99.90
17599;DHT22;8918;52.092;5.232;2023-07-13T00:54:56;17.30;99.90
17599;DHT22;8918;52.092;5.232;2023-07-13T00:57:23;17.30;99.90
17599;DHT22;8918;52.092;5.232;2023-07-13T00:59:53;17.30;99.90
17599;DHT22;8918;52.092;5.232;2023-07-13T01:02:20;17.20;99.90
17599;DHT22;8918;52.092;5.232;2023-07-13T01:04:47;17.20;99.90
17599;DHT22;8918;52.092;5.232;2023-07-13T01:07:13;17.20;99.90
17599;DHT22;8918;52.092;5.232;2023-07-13T01:09:39;17.20;99.90
17599;DHT22;8918;52.092;5.232;2023-07-13T01:12:05;17.20;99.90
17599;DHT22;8918;52.092;5.232;2023-07-13T01:14:31;17.10;99.90
17599;DHT22;8918;52.092;5.232;2023-07-13T01:16:57;17.10;99.90
17599;DHT22;8918;52.092;5.232;2023-07-13T01:19:45;17.10;99.90
17599;DHT22;8918;52.092;5.232;2023-07-13T01:22:20;17.10;99.90
17599;DHT22;8918;52.092;5.232;2023-07-13T01:24:51;17.00;99.90
17599;DHT22;8918;52.092;5.232;2023-07-13T01:27:21;17.00;99.90
17599;DHT22;8918;52.092;5.232;2023-07-13T01:29:47;17.00;99.90
17599;DHT22;8918;52.092;5.232;2023-07-13T01:32:19;17.00;99.90
17599;DHT22;8918;52.092;5.232;2023-07-13T01:34:48;16.90;99.90
17599;DHT22;8918;52.092;5.232;2023-07-13T01:37:14;16.90;99.90
17599;DHT22;8918;52.092;5.232;2023-07-13T01:39:40;16.90;99.90
17599;DHT22;8918;52.092;5.232;2023-07-13T01:42:06;16.90;99.90
17599;DHT22;8918;52.092;5.232;2023-07-13T01:44:31;16.90;99.90
17599;DHT22;8918;52.092;5.232;2023-07-13T01:46:57;16.80;99.90
17599;DHT22;8918;52.092;5.232;2023-07-13T01:49:23;16.80;99.90
17599;DHT22;8918;52.092;5.232;2023-07-13T01:51:49;16.80;99.90
17599;DHT22;8918;52.092;5.232;2023-07-13T01:54:14;16.80;99.90
17599;DHT22;8918;52.092;5.232;2023-07-13T01:56:40;16.80;99.90
17599;DHT22;8918;52.092;5.232;2023-07-13T01:59:07;16.80;99.90
17599;DHT22;8918;52.092;5.232;2023-07-13T02:01:33;16.80;99.90
17599;DHT22;8918;52.092;5.232;2023-07-13T02:03:59;16.70;99.90
17599;DHT22;8918;52.092;5.232;2023-07-13T02:06:24;16.70;99.90
17599;DHT22;8918;52.092;5.232;2023-07-13T02:08:50;16.70;99.90
17599;DHT22;8918;52.092;5.232;2023-07-13T02:11:16;16.60;99.90
17599;DHT22;8918;52.092;5.232;2023-07-13T02:13:41;16.60;99.90
17599;DHT22;8918;52.092;5.232;2023-07-13T02:16:07;16.50;99.90
17599;DHT22;8918;52.092;5.232;2023-07-13T02:18:33;16.50;99.90
17599;DHT22;8918;52.092;5.232;2023-07-13T02:20:58;16.50;99.90
17599;DHT22;8918;52.092;5.232;2023-07-13T02:23:24;16.50;99.90
17599;DHT22;8918;52.092;5.232;2023-07-13T02:25:57;16.50;99.90
17599;DHT22;8918;52.092;5.232;2023-07-13T02:28:23;16.50;99.90
17599;DHT22;8918;52.092;5.232;2023-07-13T02:30:49;16.50;99.90
17599;DHT22;8918;52.092;5.232;2023-07-13T02:33:15;16.50;99.90
17599;DHT22;8918;52.092;5.232;2023-07-13T02:35:41;16.50;99.90
17599;DHT22;8918;52.092;5.232;2023-07-13T02:38:07;16.50;99.90
17599;DHT22;8918;52.092;5.232;2023-07-13T02:40:32;16.40;99.90
17599;DHT22;8918;52.092;5.232;2023-07-13T02:42:59;16.40;99.90
17599;DHT22;8918;52.092;5.232;2023-07-13T02:45:25;16.40;99.90
17599;DHT22;8918;52.092;5.232;2023-07-13T02:47:51;16.40;99.90
17599;DHT22;8918;52.092;5.232;2023-07-13T02:50:17;16.40;99.90
17599;DHT22;8918;52.092;5.232;2023-07-13T02:52:42;16.40;99.90
17599;DHT22;8918;52.092;5.232;2023-07-13T02:55:08;16.40;99.90
17599;DHT22;8918;52.092;5.232;2023-07-13T02:57:34;16.40;99.90
17599;DHT22;8918;52.092;5.232;2023-07-13T03:00:01;16.30;99.90
17599;DHT22;8918;52.092;5.232;2023-07-13T03:02:31;16.30;99.90
17599;DHT22;8918;52.092;5.232;2023-07-13T03:04:58;16.30;99.90
17599;DHT22;8918;52.092;5.232;2023-07-13T03:07:23;16.30;99.90
17599;DHT22;8918;52.092;5.232;2023-07-13T03:09:57;16.30;99.90
17599;DHT22;8918;52.092;5.232;2023-07-13T03:12:23;16.30;99.90
17599;DHT22;8918;52.092;5.232;2023-07-13T03:14:49;16.30;99.90
17599;DHT22;8918;52.092;5.232;2023-07-13T03:17:15;16.20;99.90
17599;DHT22;8918;52.092;5.232;2023-07-13T03:19:41;16.20;99.90
17599;DHT22;8918;52.092;5.232;2023-07-13T03:22:07;16.20;99.90
17599;DHT22;8918;52.092;5.232;2023-07-13T03:24:33;16.20;99.90
17599;DHT22;8918;52.092;5.232;2023-07-13T03:27:02;16.20;99.90
17599;DHT22;8918;52.092;5.232;2023-07-13T03:29:27;16.20;99.90
17599;DHT22;8918;52.092;5.232;2023-07-13T03:31:53;16.20;99.90
17599;DHT22;8918;52.092;5.232;2023-07-13T03:34:19;16.10;99.90
17599;DHT22;8918;52.092;5.232;2023-07-13T03:36:44;16.10;99.90
17599;DHT22;8918;52.092;5.232;2023-07-13T03:39:10;16.10;99.90
17599;DHT22;8918;52.092;5.232;2023-07-13T03:41:36;16.10;99.90
17599;DHT22;8918;52.092;5.232;2023-07-13T03:44:02;16.10;99.90
17599;DHT22;8918;52.092;5.232;2023-07-13T03:46:28;16.00;99.90
17599;DHT22;8918;52.092;5.232;2023-07-13T03:48:53;16.00;99.90
17599;DHT22;8918;52.092;5.232;2023-07-13T03:51:19;16.10;99.90
17599;DHT22;8918;52.092;5.232;2023-07-13T03:53:46;16.00;99.90
17599;DHT22;8918;52.092;5.232;2023-07-13T03:56:13;16.00;99.90
17599;DHT22;8918;52.092;5.232;2023-07-13T03:58:42;16.00;99.90
17599;DHT22;8918;52.092;5.232;2023-07-13T04:01:09;16.00;99.90
17599;DHT22;8918;52.092;5.232;2023-07-13T04:03:36;16.00;99.90
17599;DHT22;8918;52.092;5.232;2023-07-13T04:06:04;16.00;99.90
17599;DHT22;8918;52.092;5.232;2023-07-13T04:08:32;16.00;99.90
17599;DHT22;8918;52.092;5.232;2023-07-13T04:10:59;15.90;99.90
17599;DHT22;8918;52.092;5.232;2023-07-13T04:13:25;15.90;99.90
17599;DHT22;8918;52.092;5.232;2023-07-13T04:15:52;15.90;99.90
17599;DHT22;8918;52.092;5.232;2023-07-13T04:18:18;15.90;99.90
17599;DHT22;8918;52.092;5.232;2023-07-13T04:20:46;15.90;99.90
17599;DHT22;8918;52.092;5.232;2023-07-13T04:23:12;15.90;99.90
17599;DHT22;8918;52.092;5.232;2023-07-13T04:25:37;16.00;99.90
17599;DHT22;8918;52.092;5.232;2023-07-13T04:28:04;16.00;99.90
17599;DHT22;8918;52.092;5.232;2023-07-13T04:30:30;16.00;99.90
17599;DHT22;8918;52.092;5.232;2023-07-13T04:32:55;15.90;99.90
17599;DHT22;8918;52.092;5.232;2023-07-13T04:35:21;15.90;99.90
17599;DHT22;8918;52.092;5.232;2023-07-13T04:37:50;15.90;99.90
17599;DHT22;8918;52.092;5.232;2023-07-13T04:40:20;16.00;99.90
17599;DHT22;8918;52.092;5.232;2023-07-13T04:42:46;16.00;99.90
17599;DHT22;8918;52.092;5.232;2023-07-13T04:45:13;16.00;99.90
17599;DHT22;8918;52.092;5.232;2023-07-13T04:47:39;16.00;99.90
17599;DHT22;8918;52.092;5.232;2023-07-13T04:50:06;16.00;99.90
17599;DHT22;8918;52.092;5.232;2023-07-13T04:52:32;16.00;99.90
17599;DHT22;8918;52.092;5.232;2023-07-13T04:54:58;16.00;99.90
17599;DHT22;8918;52.092;5.232;2023-07-13T04:57:25;16.00;99.90
17599;DHT22;8918;52.092;5.232;2023-07-13T04:59:50;16.00;99.90
17599;DHT22;8918;52.092;5.232;2023-07-13T05:02:16;16.00;99.90
17599;DHT22;8918;52.092;5.232;2023-07-13T05:04:42;16.00;99.90
17599;DHT22;8918;52.092;5.232;2023-07-13T05:07:07;16.10;99.90
17599;DHT22;8918;52.092;5.232;2023-07-13T05:09:33;16.10;99.90
17599;DHT22;8918;52.092;5.232;2023-07-13T05:11:58;16.10;99.90
17599;DHT22;8918;52.092;5.232;2023-07-13T05:14:24;16.20;99.90
17599;DHT22;8918;52.092;5.232;2023-07-13T05:16:51;16.20;99.90
17599;DHT22;8918;52.092;5.232;2023-07-13T05:19:17;16.20;99.90
17599;DHT22;8918;52.092;5.232;2023-07-13T05:21:42;16.20;99.90
17599;DHT22;8918;52.092;5.232;2023-07-13T05:24:08;16.20;99.90
17599;DHT22;8918;52.092;5.232;2023-07-13T05:26:33;16.20;99.90
17599;DHT22;8918;52.092;5.232;2023-07-13T05:28:59;16.20;99.90
17599;DHT22;8918;52.092;5.232;2023-07-13T05:31:25;16.30;99.90
17599;DHT22;8918;52.092;5.232;2023-07-13T05:33:50;16.30;99.90
17599;DHT22;8918;52.092;5.232;2023-07-13T05:36:16;16.30;99.90
17599;DHT22;8918;52.092;5.232;2023-07-13T05:38:42;16.40;99.90
17599;DHT22;8918;52.092;5.232;2023-07-13T05:41:07;16.40;99.90
17599;DHT22;8918;52.092;5.232;2023-07-13T05:43:33;16.40;99.90
17599;DHT22;8918;52.092;5.232;2023-07-13T05:45:59;16.40;99.90
17599;DHT22;8918;52.092;5.232;2023-07-13T05:48:25;16.50;99.90
17599;DHT22;8918;52.092;5.232;2023-07-13T05:50:50;16.50;99.90
17599;DHT22;8918;52.092;5.232;2023-07-13T05:53:16;16.60;99.90
17599;DHT22;8918;52.092;5.232;2023-07-13T05:55:46;16.60;99.90
17599;DHT22;8918;52.092;5.232;2023-07-13T05:58:16;16.70;99.90
17599;DHT22;8918;52.092;5.232;2023-07-13T06:00:43;16.70;99.90
17599;DHT22;8918;52.092;5.232;2023-07-13T06:03:08;16.80;99.90
17599;DHT22;8918;52.092;5.232;2023-07-13T06:05:35;16.90;99.90
17599;DHT22;8918;52.092;5.232;2023-07-13T06:08:02;16.90;99.90
17599;DHT22;8918;52.092;5.232;2023-07-13T06:10:28;17.00;99.90
17599;DHT22;8918;52.092;5.232;2023-07-13T06:12:53;16.90;99.90
17599;DHT22;8918;52.092;5.232;2023-07-13T06:15:19;17.00;99.90
17599;DHT22;8918;52.092;5.232;2023-07-13T06:17:45;17.00;99.90
17599;DHT22;8918;52.092;5.232;2023-07-13T06:20:11;17.10;99.90
17599;DHT22;8918;52.092;5.232;2023-07-13T06:22:36;17.10;99.90
17599;DHT22;8918;52.092;5.232;2023-07-13T06:25:02;17.20;99.90
17599;DHT22;8918;52.092;5.232;2023-07-13T06:27:28;17.20;99.90
17599;DHT22;8918;52.092;5.232;2023-07-13T06:29:54;17.30;99.90
17599;DHT22;8918;52.092;5.232;2023-07-13T06:32:20;17.30;99.90
17599;DHT22;8918;52.092;5.232;2023-07-13T06:34:46;17.40;99.90
17599;DHT22;8918;52.092;5.232;2023-07-13T06:37:11;17.40;99.90
17599;DHT22;8918;52.092;5.232;2023-07-13T06:39:37;17.40;99.90
17599;DHT22;8918;52.092;5.232;2023-07-13T06:42:03;17.40;99.90
17599;DHT22;8918;52.092;5.232;2023-07-13T06:44:30;17.40;99.90
17599;DHT22;8918;52.092;5.232;2023-07-13T06:46:55;17.50;99.90
17599;DHT22;8918;52.092;5.232;2023-07-13T06:49:21;17.50;99.90
17599;DHT22;8918;52.092;5.232;2023-07-13T06:51:46;17.60;99.90
17599;DHT22;8918;52.092;5.232;2023-07-13T06:54:13;17.60;99.90
17599;DHT22;8918;52.092;5.232;2023-07-13T06:56:39;17.70;99.90
17599;DHT22;8918;52.092;5.232;2023-07-13T06:59:05;17.90;99.90
17599;DHT22;8918;52.092;5.232;2023-07-13T07:01:30;17.90;99.90
17599;DHT22;8918;52.092;5.232;2023-07-13T07:03:56;18.00;99.90
17599;DHT22;8918;52.092;5.232;2023-07-13T07:06:22;18.00;99.90
17599;DHT22;8918;52.092;5.232;2023-07-13T07:08:50;18.10;99.90
17599;DHT22;8918;52.092;5.232;2023-07-13T07:11:24;18.10;99.90
17599;DHT22;8918;52.092;5.232;2023-07-13T07:13:51;18.00;99.90
17599;DHT22;8918;52.092;5.232;2023-07-13T07:16:18;18.00;99.90
17599;DHT22;8918;52.092;5.232;2023-07-13T07:18:44;17.90;99.90
17599;DHT22;8918;52.092;5.232;2023-07-13T07:21:10;17.80;99.90
17599;DHT22;8918;52.092;5.232;2023-07-13T07:23:36;17.60;99.90
17599;DHT22;8918;52.092;5.232;2023-07-13T07:26:02;17.60;99.90
17599;DHT22;8918;52.092;5.232;2023-07-13T07:28:27;17.50;99.90
17599;DHT22;8918;52.092;5.232;2023-07-13T07:30:57;17.50;99.90
17599;DHT22;8918;52.092;5.232;2023-07-13T07:33:24;17.50;99.90
17599;DHT22;8918;52.092;5.232;2023-07-13T07:35:50;17.50;99.90
17599;DHT22;8918;52.092;5.232;2023-07-13T07:38:16;17.50;99.90
17599;DHT22;8918;52.092;5.232;2023-07-13T07:40:42;17.50;99.90
17599;DHT22;8918;52.092;5.232;2023-07-13T07:43:10;17.60;99.90
17599;DHT22;8918;52.092;5.232;2023-07-13T07:45:35;17.60;99.90
17599;DHT22;8918;52.092;5.232;2023-07-13T07:48:03;17.60;99.90
17599;DHT22;8918;52.092;5.232;2023-07-13T07:50:29;17.80;99.90
17599;DHT22;8918;52.092;5.232;2023-07-13T07:52:55;17.80;99.90
17599;DHT22;8918;52.092;5.232;2023-07-13T07:55:22;17.90;99.90
17599;DHT22;8918;52.092;5.232;2023-07-13T07:57:48;17.90;99.90
17599;DHT22;8918;52.092;5.232;2023-07-13T08:00:14;17.90;99.90
17599;DHT22;8918;52.092;5.232;2023-07-13T08:02:40;17.90;99.90
17599;DHT22;8918;52.092;5.232;2023-07-13T08:05:07;18.00;99.90
17599;DHT22;8918;52.092;5.232;2023-07-13T08:07:33;18.10;99.90
17599;DHT22;8918;52.092;5.232;2023-07-13T08:09:59;18.20;99.90
17599;DHT22;8918;52.092;5.232;2023-07-13T08:12:25;18.20;99.90
17599;DHT22;8918;52.092;5.232;2023-07-13T08:14:51;18.30;99.90
17599;DHT22;8918;52.092;5.232;2023-07-13T08:17:23;18.40;99.90
17599;DHT22;8918;52.092;5.232;2023-07-13T08:19:49;18.60;99.90
17599;DHT22;8918;52.092;5.232;2023-07-13T08:22:14;18.80;99.90
17599;DHT22;8918;52.092;5.232;2023-07-13T08:24:40;18.80;99.90
17599;DHT22;8918;52.092;5.232;2023-07-13T08:27:08;18.80;99.90
17599;DHT22;8918;52.092;5.232;2023-07-13T08:29:34;18.70;99.90
17599;DHT22;8918;52.092;5.232;2023-07-13T08:32:00;18.60;99.90
17599;DHT22;8918;52.092;5.232;2023-07-13T08:34:25;18.50;99.90
17599;DHT22;8918;52.092;5.232;2023-07-13T08:36:51;18.40;99.90
17599;DHT22;8918;52.092;5.232;2023-07-13T08:39:17;18.30;99.90
17599;DHT22;8918;52.092;5.232;2023-07-13T08:41:46;18.20;99.90
17599;DHT22;8918;52.092;5.232;2023-07-13T08:44:36;18.00;99.90
17599;DHT22;8918;52.092;5.232;2023-07-13T08:47:06;17.80;99.90
17599;DHT22;8918;52.092;5.232;2023-07-13T08:49:34;17.70;99.90
17599;DHT22;8918;52.092;5.232;2023-07-13T08:52:01;17.70;99.90
17599;DHT22;8918;52.092;5.232;2023-07-13T08:54:49;17.70;99.90
17599;DHT22;8918;52.092;5.232;2023-07-13T08:57:19;17.70;99.90
17599;DHT22;8918;52.092;5.232;2023-07-13T08:59:45;17.70;99.90
17599;DHT22;8918;52.092;5.232;2023-07-13T09:05:12;17.90;99.90
17599;DHT22;8918;52.092;5.232;2023-07-13T09:10:44;18.10;99.90
17599;DHT22;8918;52.092;5.232;2023-07-13T09:15:49;18.50;99.90
17599;DHT22;8918;52.092;5.232;2023-07-13T09:18:35;18.60;99.90
17599;DHT22;8918;52.092;5.232;2023-07-13T09:21:25;18.70;99.90
17599;DHT22;8918;52.092;5.232;2023-07-13T09:26:23;19.30;99.90
17599;DHT22;8918;52.092;5.232;2023-07-13T09:28:59;19.60;99.90
17599;DHT22;8918;52.092;5.232;2023-07-13T09:31:39;19.90;99.90
17599;DHT22;8918;52.092;5.232;2023-07-13T09:34:11;20.10;99.90
17599;DHT22;8918;52.092;5.232;2023-07-13T09:36:38;20.20;99.90
17599;DHT22;8918;52.092;5.232;2023-07-13T09:39:10;20.10;99.90
17599;DHT22;8918;52.092;5.232;2023-07-13T09:44:18;19.60;99.90
17599;DHT22;8918;52.092;5.232;2023-07-13T09:46:53;19.10;99.90
17599;DHT22;8918;52.092;5.232;2023-07-13T09:49:27;18.80;99.90
17599;DHT22;8918;52.092;5.232;2023-07-13T09:52:04;18.60;99.90
17599;DHT22;8918;52.092;5.232;2023-07-13T09:54:34;18.50;99.90
17599;DHT22;8918;52.092;5.232;2023-07-13T09:57:02;18.60;99.90
17599;DHT22;8918;52.092;5.232;2023-07-13T09:59:33;18.60;99.90
17599;DHT22;8918;52.092;5.232;2023-07-13T10:01:59;18.80;99.90
17599;DHT22;8918;52.092;5.232;2023-07-13T10:04:32;19.00;99.90
17599;DHT22;8918;52.092;5.232;2023-07-13T10:07:06;19.10;99.90
17599;DHT22;8918;52.092;5.232;2023-07-13T10:09:32;19.50;99.90
17599;DHT22;8918;52.092;5.232;2023-07-13T10:11:58;19.80;99.90
17599;DHT22;8918;52.092;5.232;2023-07-13T10:14:24;19.90;99.90
17599;DHT22;8918;52.092;5.232;2023-07-13T10:16:57;20.10;99.90
17599;DHT22;8918;52.092;5.232;2023-07-13T10:19:26;20.30;99.90
17599;DHT22;8918;52.092;5.232;2023-07-13T10:21:59;20.60;99.90
17599;DHT22;8918;52.092;5.232;2023-07-13T10:24:31;20.80;99.90
17599;DHT22;8918;52.092;5.232;2023-07-13T10:29:53;20.70;99.90
17599;DHT22;8918;52.092;5.232;2023-07-13T10:32:22;20.30;99.90
17599;DHT22;8918;52.092;5.232;2023-07-13T10:34:50;19.90;99.90
17599;DHT22;8918;52.092;5.232;2023-07-13T10:37:23;19.90;99.90
17599;DHT22;8918;52.092;5.232;2023-07-13T10:39:52;20.00;99.90
17599;DHT22;8918;52.092;5.232;2023-07-13T10:42:31;20.20;99.90
17599;DHT22;8918;52.092;5.232;2023-07-13T10:44:58;20.50;99.90
17599;DHT22;8918;52.092;5.232;2023-07-13T10:47:24;20.70;99.90
17599;DHT22;8918;52.092;5.232;2023-07-13T10:49:54;20.80;99.90
17599;DHT22;8918;52.092;5.232;2023-07-13T10:55:31;21.10;99.90
17599;DHT22;8918;52.092;5.232;2023-07-13T10:58:02;21.20;99.90
17599;DHT22;8918;52.092;5.232;2023-07-13T11:00:31;21.30;99.90
17599;DHT22;8918;52.092;5.232;2023-07-13T11:03:00;21.40;99.90
17599;DHT22;8918;52.092;5.232;2023-07-13T11:05:31;21.60;99.90
17599;DHT22;8918;52.092;5.232;2023-07-13T11:08:20;21.70;99.90
17599;DHT22;8918;52.092;5.232;2023-07-13T11:13:39;22.00;99.90
17599;DHT22;8918;52.092;5.232;2023-07-13T11:21:31;21.50;99.90
17599;DHT22;8918;52.092;5.232;2023-07-13T11:24:17;21.10;99.90
17599;DHT22;8918;52.092;5.232;2023-07-13T11:31:59;19.90;99.90
17599;DHT22;8918;52.092;5.232;2023-07-13T11:34:30;19.70;99.90
17599;DHT22;8918;52.092;5.232;2023-07-13T11:36:58;19.60;99.90
17599;DHT22;8918;52.092;5.232;2023-07-13T11:39:31;19.50;99.90
17599;DHT22;8918;52.092;5.232;2023-07-13T11:42:01;19.50;99.90
17599;DHT22;8918;52.092;5.232;2023-07-13T11:44:29;19.50;99.90
17599;DHT22;8918;52.092;5.232;2023-07-13T11:46:57;19.50;99.90
17599;DHT22;8918;52.092;5.232;2023-07-13T11:49:29;19.50;99.90
17599;DHT22;8918;52.092;5.232;2023-07-13T11:51:56;19.50;99.90
17599;DHT22;8918;52.092;5.232;2023-07-13T11:54:49;19.70;99.90
17599;DHT22;8918;52.092;5.232;2023-07-13T11:57:39;19.90;99.90
17599;DHT22;8918;52.092;5.232;2023-07-13T12:00:13;20.10;99.90
17599;DHT22;8918;52.092;5.232;2023-07-13T12:02:46;20.40;99.90
17599;DHT22;8918;52.092;5.232;2023-07-13T12:05:16;20.80;99.90
17599;DHT22;8918;52.092;5.232;2023-07-13T12:07:43;21.10;99.90
17599;DHT22;8918;52.092;5.232;2023-07-13T12:13:04;21.30;99.90
17599;DHT22;8918;52.092;5.232;2023-07-13T12:15:49;21.30;99.90
17599;DHT22;8918;52.092;5.232;2023-07-13T12:18:22;21.30;99.90
17599;DHT22;8918;52.092;5.232;2023-07-13T12:20:50;21.30;99.90
17599;DHT22;8918;52.092;5.232;2023-07-13T12:23:30;21.50;99.90
17599;DHT22;8918;52.092;5.232;2023-07-13T12:25:58;21.70;99.90
17599;DHT22;8918;52.092;5.232;2023-07-13T12:28:36;22.00;99.90
17599;DHT22;8918;52.092;5.232;2023-07-13T12:31:04;22.20;99.90
17599;DHT22;8918;52.092;5.232;2023-07-13T12:33:32;22.30;99.90
17599;DHT22;8918;52.092;5.232;2023-07-13T12:36:01;22.30;99.90
17599;DHT22;8918;52.092;5.232;2023-07-13T12:38:27;22.40;99.90
17599;DHT22;8918;52.092;5.232;2023-07-13T12:40:53;22.50;99.90
17599;DHT22;8918;52.092;5.232;2023-07-13T12:43:23;22.60;99.90
17599;DHT22;8918;52.092;5.232;2023-07-13T12:45:56;22.70;99.90
17599;DHT22;8918;52.092;5.232;2023-07-13T12:48:22;22.80;99.90
17599;DHT22;8918;52.092;5.232;2023-07-13T12:50:49;22.90;99.90
17599;DHT22;8918;52.092;5.232;2023-07-13T12:53:38;23.00;99.90
17599;DHT22;8918;52.092;5.232;2023-07-13T12:56:05;23.00;99.90
17599;DHT22;8918;52.092;5.232;2023-07-13T12:58:39;22.90;99.90
17599;DHT22;8918;52.092;5.232;2023-07-13T13:01:07;22.90;99.90
17599;DHT22;8918;52.092;5.232;2023-07-13T13:03:39;22.90;99.90
17599;DHT22;8918;52.092;5.232;2023-07-13T13:08:47;23.10;99.90
17599;DHT22;8918;52.092;5.232;2023-07-13T13:11:14;23.20;99.90
17599;DHT22;8918;52.092;5.232;2023-07-13T13:13:45;23.30;99.90
17599;DHT22;8918;52.092;5.232;2023-07-13T13:18:51;23.50;99.90
17599;DHT22;8918;52.092;5.232;2023-07-13T13:21:20;23.20;99.90
17599;DHT22;8918;52.092;5.232;2023-07-13T13:23:46;22.90;99.90
17599;DHT22;8918;52.092;5.232;2023-07-13T13:26:14;22.80;99.90
17599;DHT22;8918;52.092;5.232;2023-07-13T13:28:44;22.80;99.90
17599;DHT22;8918;52.092;5.232;2023-07-13T13:31:10;22.90;99.90
17599;DHT22;8918;52.092;5.232;2023-07-13T13:33:45;23.10;99.90
17599;DHT22;8918;52.092;5.232;2023-07-13T13:36:19;23.10;99.90
17599;DHT22;8918;52.092;5.232;2023-07-13T13:38:45;23.20;99.90
17599;DHT22;8918;52.092;5.232;2023-07-13T13:41:13;22.90;99.90
17599;DHT22;8918;52.092;5.232;2023-07-13T13:43:40;22.70;99.90
17599;DHT22;8918;52.092;5.232;2023-07-13T13:46:17;22.60;99.90
17599;DHT22;8918;52.092;5.232;2023-07-13T13:48:44;22.50;99.90
17599;DHT22;8918;52.092;5.232;2023-07-13T13:51:19;22.50;99.90
17599;DHT22;8918;52.092;5.232;2023-07-13T13:53:46;22.30;99.90
17599;DHT22;8918;52.092;5.232;2023-07-13T13:56:13;22.20;99.90
17599;DHT22;8918;52.092;5.232;2023-07-13T13:58:39;22.00;99.90
17599;DHT22;8918;52.092;5.232;2023-07-13T14:01:16;21.90;99.90
17599;DHT22;8918;52.092;5.232;2023-07-13T14:03:43;21.80;99.90
17599;DHT22;8918;52.092;5.232;2023-07-13T14:06:13;21.70;99.90
17599;DHT22;8918;52.092;5.232;2023-07-13T14:08:39;21.70;99.90
17599;DHT22;8918;52.092;5.232;2023-07-13T14:11:07;21.70;99.90
17599;DHT22;8918;52.092;5.232;2023-07-13T14:13:40;21.90;99.90
17599;DHT22;8918;52.092;5.232;2023-07-13T14:16:14;22.00;99.90
17599;DHT22;8918;52.092;5.232;2023-07-13T14:18:43;21.90;99.90
17599;DHT22;8918;52.092;5.232;2023-07-13T14:21:18;21.80;99.90
17599;DHT22;8918;52.092;5.232;2023-07-13T14:23:45;21.70;99.90
17599;DHT22;8918;52.092;5.232;2023-07-13T14:26:14;21.60;99.90
17599;DHT22;8918;52.092;5.232;2023-07-13T14:28:46;21.60;99.90
17599;DHT22;8918;52.092;5.232;2023-07-13T14:31:13;21.60;99.90
17599;DHT22;8918;52.092;5.232;2023-07-13T14:33:39;21.60;99.90
17599;DHT22;8918;52.092;5.232;2023-07-13T14:38:48;21.50;99.90
17599;DHT22;8918;52.092;5.232;2023-07-13T14:41:15;21.40;99.90
17599;DHT22;8918;52.092;5.232;2023-07-13T14:43:40;21.30;99.90
17599;DHT22;8918;52.092;5.232;2023-07-13T14:46:12;21.50;99.90
17599;DHT22;8918;52.092;5.232;2023-07-13T14:48:43;22.00;99.90
17599;DHT22;8918;52.092;5.232;2023-07-13T14:51:09;22.40;99.90
17599;DHT22;8918;52.092;5.232;2023-07-13T14:53:35;22.80;99.90
17599;DHT22;8918;52.092;5.232;2023-07-13T14:56:12;23.10;99.90
17599;DHT22;8918;52.092;5.232;2023-07-13T14:58:37;23.20;99.90
17599;DHT22;8918;52.092;5.232;2023-07-13T15:01:11;23.30;99.90
17599;DHT22;8918;52.092;5.232;2023-07-13T15:03:43;23.50;99.90
17599;DHT22;8918;52.092;5.232;2023-07-13T15:06:11;23.50;99.90
17599;DHT22;8918;52.092;5.232;2023-07-13T15:08:37;23.30;99.90
17599;DHT22;8918;52.092;5.232;2023-07-13T15:11:03;23.00;99.90
17599;DHT22;8918;52.092;5.232;2023-07-13T15:13:30;22.80;99.90
17599;DHT22;8918;52.092;5.232;2023-07-13T15:15:56;22.90;99.90
17599;DHT22;8918;52.092;5.232;2023-07-13T15:18:23;23.00;99.90
17599;DHT22;8918;52.092;5.232;2023-07-13T15:20:51;23.00;99.90
17599;DHT22;8918;52.092;5.232;2023-07-13T15:23:21;22.90;99.90
17599;DHT22;8918;52.092;5.232;2023-07-13T15:25:48;22.70;99.90
17599;DHT22;8918;52.092;5.232;2023-07-13T15:28:14;22.70;99.90
17599;DHT22;8918;52.092;5.232;2023-07-13T15:30:47;22.90;99.90
17599;DHT22;8918;52.092;5.232;2023-07-13T15:33:26;22.80;99.90
17599;DHT22;8918;52.092;5.232;2023-07-13T15:35:53;23.10;99.90
17599;DHT22;8918;52.092;5.232;2023-07-13T15:38:21;23.20;99.90
17599;DHT22;8918;52.092;5.232;2023-07-13T15:40:48;23.10;99.90
17599;DHT22;8918;52.092;5.232;2023-07-13T15:43:15;22.80;99.90
17599;DHT22;8918;52.092;5.232;2023-07-13T15:45:41;22.50;99.90
17599;DHT22;8918;52.092;5.232;2023-07-13T15:48:22;22.50;99.90
17599;DHT22;8918;52.092;5.232;2023-07-13T15:50:51;22.60;99.90
17599;DHT22;8918;52.092;5.232;2023-07-13T15:53:22;22.90;99.90
17599;DHT22;8918;52.092;5.232;2023-07-13T15:55:48;23.20;99.90
17599;DHT22;8918;52.092;5.232;2023-07-13T15:58:15;23.30;99.90
17599;DHT22;8918;52.092;5.232;2023-07-13T16:00:41;23.40;99.90
17599;DHT22;8918;52.092;5.232;2023-07-13T16:03:07;23.50;99.90
17599;DHT22;8918;52.092;5.232;2023-07-13T16:05:34;23.70;99.90
17599;DHT22;8918;52.092;5.232;2023-07-13T16:08:01;24.00;99.90
17599;DHT22;8918;52.092;5.232;2023-07-13T16:10:31;24.10;99.90
17599;DHT22;8918;52.092;5.232;2023-07-13T16:12:57;24.20;99.90
17599;DHT22;8918;52.092;5.232;2023-07-13T16:15:24;24.40;99.90
17599;DHT22;8918;52.092;5.232;2023-07-13T16:17:50;24.20;99.90
17599;DHT22;8918;52.092;5.232;2023-07-13T16:20:17;24.00;99.90
17599;DHT22;8918;52.092;5.232;2023-07-13T16:22:49;23.60;99.90
17599;DHT22;8918;52.092;5.232;2023-07-13T16:25:26;23.20;99.90
17599;DHT22;8918;52.092;5.232;2023-07-13T16:27:53;23.00;99.90
17599;DHT22;8918;52.092;5.232;2023-07-13T16:30:26;23.20;99.90
17599;DHT22;8918;52.092;5.232;2023-07-13T16:32:53;23.50;99.90
17599;DHT22;8918;52.092;5.232;2023-07-13T16:35:20;23.90;99.90
17599;DHT22;8918;52.092;5.232;2023-07-13T16:37:46;24.40;99.90